Time;durP1;ratioP1;P1;durP2;ratioP2;P2;SDS_P1;SDS_P2;PMS_P1;PMS_P2;Temp;Humidity;BMP_temperature;BMP_pressure;BME280_temperature;BME280_humidity;BME280_pressure;Samples;Min_cycle;Max_cycle;Signal;HPM_P1;HPM_P2
2021/01/10 00:03:28;;;;;;;9.50;7.93;;;;;;;2.49;61.01;100975.41;10424434;28;20052;-69
2021/01/10 00:08:30;;;;;;;9.18;8.20;;;;;;;2.41;61.08;100978.31;10426056;28;20640;-68
2021/01/10 00:13:31;;;;;;;8.90;8.00;;;;;;;2.60;61.02;100970.66;10422551;28;20525;-69
2021/01/10 00:18:32;;;;;;;9.88;7.80;;;;;;;2.67;60.77;100965.16;10431211;28;20111;-69
2021/01/10 00:23:34;;;;;;;8.13;6.82;;;;;;;2.65;60.22;100968.69;10429557;28;20115;-69
2021/01/10 00:28:36;;;;;;;7.60;6.75;;;;;;;2.52;60.21;100975.31;10421053;28;20132;-68
2021/01/10 00:33:38;;;;;;;8.05;6.70;;;;;;;2.46;60.84;100965.88;10447108;28;20120;-70
2021/01/10 00:38:39;;;;;;;7.30;6.53;;;;;;;2.44;60.67;100970.31;10462604;28;20373;-70
2021/01/10 00:43:40;;;;;;;10.27;6.18;;;;;;;2.51;60.28;100970.09;10425166;28;20045;-68
2021/01/10 00:48:41;;;;;;;8.00;7.20;;;;;;;2.62;59.81;100974.06;10426931;28;20103;-69
2021/01/10 00:53:42;;;;;;;7.43;6.22;;;;;;;2.53;60.01;100977.03;10442314;28;20102;-69
2021/01/10 00:58:44;;;;;;;7.65;6.50;;;;;;;2.52;59.98;100971.81;10426786;28;20103;-69
2021/01/10 01:03:47;;;;;;;6.70;5.90;;;;;;;2.62;59.27;100978.47;10428713;28;20053;-69
2021/01/10 01:08:48;;;;;;;6.70;6.10;;;;;;;2.48;59.23;100985.09;10445600;28;20518;-69
2021/01/10 01:13:50;;;;;;;7.50;6.78;;;;;;;2.42;59.68;100976.56;10425185;28;20057;-68
2021/01/10 01:18:51;;;;;;;7.28;6.57;;;;;;;2.38;60.23;100965.28;10428042;28;20453;-70
2021/01/10 01:23:52;;;;;;;7.63;6.70;;;;;;;2.35;59.96;100981.16;10428275;28;20064;-67
2021/01/10 01:28:54;;;;;;;7.05;6.35;;;;;;;2.46;59.57;100979.03;10423304;28;20064;-69
2021/01/10 01:33:55;;;;;;;7.90;6.65;;;;;;;2.45;59.88;100985.19;10428801;28;20056;-69
2021/01/10 01:38:58;;;;;;;7.35;6.65;;;;;;;2.50;59.98;100986.81;10427116;28;20594;-69
2021/01/10 01:43:59;;;;;;;8.57;7.07;;;;;;;2.50;59.74;100992.06;10425583;28;20052;-69
2021/01/10 01:49:06;;;;;;;8.63;7.40;;;;;;;2.43;60.04;100997.53;10413231;28;20076;-68
2021/01/10 01:54:08;;;;;;;8.38;7.40;;;;;;;2.43;60.36;100997.53;10419515;28;20072;-69
2021/01/10 01:59:09;;;;;;;6.90;6.20;;;;;;;2.45;60.37;100992.22;10417959;28;20136;-68
2021/01/10 02:04:32;;;;;;;6.80;5.93;;;;;;;2.42;59.53;100985.31;10443212;28;20079;-69
2021/01/10 02:09:40;;;;;;;7.85;6.70;;;;;;;2.42;59.71;100987.09;10426745;28;20144;-69
2021/01/10 02:15:00;;;;;;;8.00;6.28;;;;;;;2.20;59.71;100984.31;10425510;28;20048;-69
2021/01/10 02:20:10;;;;;;;8.48;7.30;;;;;;;2.16;60.36;100980.06;10388807;22;20142;-56
2021/01/10 02:25:13;;;;;;;8.80;6.93;;;;;;;2.15;60.77;100986.22;10398088;28;20127;-55
2021/01/10 02:30:15;;;;;;;7.57;6.63;;;;;;;2.14;61.10;100974.88;10369850;28;20042;-57
2021/01/10 02:35:17;;;;;;;8.45;7.50;;;;;;;2.25;60.94;100987.63;10381274;28;20050;-55
2021/01/10 02:40:35;;;;;;;8.18;7.35;;;;;;;2.11;61.30;100981.09;10379581;28;20414;-57
2021/01/10 02:45:41;;;;;;;7.95;7.07;;;;;;;2.14;61.41;100985.38;10377976;28;20045;-57
2021/01/10 02:50:42;;;;;;;9.85;8.10;;;;;;;2.03;61.46;100977.88;10370689;28;20049;-56
2021/01/10 02:55:43;;;;;;;8.93;7.55;;;;;;;2.08;61.10;100978.56;10372184;28;20045;-55
2021/01/10 03:00:46;;;;;;;8.55;7.60;;;;;;;2.10;61.38;100995.16;10368927;28;20103;-55
2021/01/10 03:05:48;;;;;;;9.25;8.27;;;;;;;2.00;62.50;100985.84;10372996;28;20525;-56
2021/01/10 03:10:51;;;;;;;9.45;8.40;;;;;;;2.01;62.47;100982.31;10376638;28;20060;-58
2021/01/10 03:15:52;;;;;;;9.77;8.27;;;;;;;1.92;62.81;100974.72;10378892;28;20053;-55
2021/01/10 03:20:53;;;;;;;9.82;7.47;;;;;;;1.90;62.93;100969.53;10377219;28;20053;-55
2021/01/10 03:25:54;;;;;;;9.50;7.65;;;;;;;1.77;63.49;100968.22;10379064;28;20056;-57
2021/01/10 03:30:56;;;;;;;8.55;7.53;;;;;;;1.80;63.36;100977.75;10373375;28;20164;-56
2021/01/10 03:36:00;;;;;;;9.85;8.75;;;;;;;1.74;63.70;100969.19;10368770;28;20080;-57
2021/01/10 03:41:01;;;;;;;11.45;8.80;;;;;;;1.79;63.70;100986.53;10367940;28;20495;-57
2021/01/10 03:46:03;;;;;;;9.90;8.32;;;;;;;1.74;63.77;100963.06;10371507;28;20060;-57
2021/01/10 03:51:06;;;;;;;9.98;8.10;;;;;;;1.75;63.80;100980.53;10376550;28;20106;-56
2021/01/10 03:56:08;;;;;;;8.88;7.68;;;;;;;1.79;64.24;100974.28;10369255;28;20053;-56
2021/01/10 04:01:09;;;;;;;11.75;9.75;;;;;;;1.82;63.60;100961.06;10369972;28;20073;-56
2021/01/10 04:06:11;;;;;;;11.30;8.93;;;;;;;1.82;63.81;100965.44;10374058;28;20195;-56
2021/01/10 04:11:14;;;;;;;9.85;8.85;;;;;;;1.65;64.73;100972.13;10368183;28;20041;-56
2021/01/10 04:16:15;;;;;;;10.18;9.18;;;;;;;1.80;64.66;100989.09;10370582;28;20045;-56
2021/01/10 04:21:18;;;;;;;9.55;8.38;;;;;;;1.98;63.61;100977.16;10371638;28;20396;-56
2021/01/10 04:26:19;;;;;;;8.77;7.80;;;;;;;1.82;63.91;100966.31;10374863;28;20045;-56
2021/01/10 04:31:21;;;;;;;9.15;8.00;;;;;;;2.08;64.06;100975.09;10370171;28;20045;-56
2021/01/10 04:36:30;;;;;;;8.48;7.55;;;;;;;2.19;63.46;100969.47;10369873;28;20060;-56
2021/01/10 04:41:33;;;;;;;9.30;8.23;;;;;;;2.02;63.21;100962.16;10368587;28;20475;-59
2021/01/10 04:46:37;;;;;;;9.33;8.07;;;;;;;1.93;64.24;100963.31;10364202;28;20528;-56
2021/01/10 04:51:39;;;;;;;9.70;8.38;;;;;;;1.90;64.33;100968.69;10367263;28;20058;-57
2021/01/10 04:56:43;;;;;;;9.95;8.07;;;;;;;1.88;64.47;100986.25;10371723;28;20052;-57
2021/01/10 05:01:50;;;;;;;10.07;7.85;;;;;;;2.02;64.40;100983.19;10368709;28;20503;-57
2021/01/10 05:06:52;;;;;;;9.13;7.45;;;;;;;2.04;64.32;100971.72;10367759;28;20054;-56
2021/01/10 05:11:54;;;;;;;8.75;7.43;;;;;;;2.00;64.38;100975.34;10363885;28;20069;-56
2021/01/10 05:16:59;;;;;;;10.57;8.23;;;;;;;2.02;64.41;100973.50;10366559;28;23883;-58
2021/01/10 05:22:05;;;;;;;9.20;7.45;;;;;;;2.01;64.00;100965.69;10371710;28;20107;-58
2021/01/10 05:27:06;;;;;;;13.05;9.30;;;;;;;2.08;64.09;100980.34;10373248;28;20049;-58
2021/01/10 05:32:10;;;;;;;10.75;9.20;;;;;;;1.95;64.68;100969.38;10372964;28;20081;-62
2021/01/10 05:37:16;;;;;;;11.23;9.00;;;;;;;1.93;65.57;100969.41;10369275;28;20041;-57
2021/01/10 05:42:18;;;;;;;10.77;9.50;;;;;;;1.91;65.84;100975.66;10375989;28;20076;-56
2021/01/10 05:47:20;;;;;;;13.95;12.18;;;;;;;1.82;66.46;100982.06;10376596;28;20046;-57
2021/01/10 05:52:22;;;;;;;17.58;13.90;;;;;;;1.84;67.44;100987.25;10380967;28;20085;-55
2021/01/10 05:57:28;;;;;;;18.20;14.90;;;;;;;1.80;67.54;100981.22;10391962;28;20258;-57
2021/01/10 06:02:37;;;;;;;17.05;14.60;;;;;;;1.76;67.39;100983.09;10382999;28;20057;-57
2021/01/10 06:07:40;;;;;;;14.35;12.85;;;;;;;1.81;67.31;100988.22;10376448;28;20111;-58
2021/01/10 06:12:41;;;;;;;15.05;13.05;;;;;;;1.77;67.45;100979.59;10371562;28;20329;-55
2021/01/10 06:17:47;;;;;;;13.98;12.13;;;;;;;1.73;68.16;100983.22;10375291;28;20057;-57
2021/01/10 06:22:51;;;;;;;14.63;13.13;;;;;;;1.74;68.64;100984.06;10367981;28;20103;-56
2021/01/10 06:27:58;;;;;;;14.50;13.00;;;;;;;1.79;68.50;100981.28;10378489;28;20045;-56
2021/01/10 06:33:06;;;;;;;13.48;11.90;;;;;;;1.82;68.31;100984.69;10371936;28;20104;-58
2021/01/10 06:38:10;;;;;;;14.60;12.88;;;;;;;1.85;68.16;100996.88;10369352;28;20453;-56
2021/01/10 06:43:13;;;;;;;14.00;12.23;;;;;;;1.83;68.12;101010.03;10377424;28;20050;-56
2021/01/10 06:48:15;;;;;;;13.05;10.77;;;;;;;1.87;68.14;101016.03;10370190;28;20442;-55
2021/01/10 06:53:16;;;;;;;13.43;11.45;;;;;;;1.88;68.31;101002.88;10374626;28;20061;-57
2021/01/10 06:58:18;;;;;;;15.65;12.18;;;;;;;1.87;68.17;101010.78;10367138;28;20060;-58
2021/01/10 07:03:20;;;;;;;13.60;12.15;;;;;;;1.55;68.42;100968.06;10360133;28;20045;-57
2021/01/10 07:08:42;;;;;;;13.68;11.90;;;;;;;1.80;68.38;101004.00;10360404;28;20512;-55
2021/01/10 07:13:45;;;;;;;12.15;10.95;;;;;;;1.71;68.72;100995.53;10358358;28;20041;-56
2021/01/10 07:18:55;;;;;;;14.47;12.07;;;;;;;1.65;68.61;101016.72;10363827;28;20045;-55
2021/01/10 07:24:13;;;;;;;13.63;11.68;;;;;;;1.74;68.71;101000.69;10361823;28;20098;-58
2021/01/10 07:29:31;;;;;;;15.75;12.18;;;;;;;1.79;68.80;100992.66;10357180;28;20229;-55
2021/01/10 07:34:37;;;;;;;14.70;12.35;;;;;;;1.67;68.87;101003.56;10357568;28;20069;-56
2021/01/10 07:39:52;;;;;;;13.57;10.88;;;;;;;1.65;69.03;100993.13;10362572;28;20349;-57
2021/01/10 07:45:07;;;;;;;12.07;10.33;;;;;;;1.70;68.89;101001.69;10356170;28;20094;-56
2021/01/10 07:50:24;;;;;;;13.57;11.83;;;;;;;1.69;68.80;101001.72;10358807;28;20045;-55
2021/01/10 07:55:30;;;;;;;13.43;12.00;;;;;;;1.72;68.66;101012.97;10359014;28;20049;-55
2021/01/10 08:00:48;;;;;;;14.65;11.68;;;;;;;1.72;69.09;101023.47;10358008;28;20084;-56
2021/01/10 08:05:59;;;;;;;15.60;11.73;;;;;;;1.72;68.88;101028.72;10352938;28;20099;-55
2021/01/10 08:11:03;;;;;;;14.27;12.02;;;;;;;1.76;68.89;101035.63;10353578;28;20204;-56
2021/01/10 08:16:08;;;;;;;12.23;10.82;;;;;;;1.84;68.78;101042.41;10350641;28;20056;-56
2021/01/10 08:21:16;;;;;;;16.02;11.65;;;;;;;1.92;68.16;101029.88;10379102;23;20056;-58
2021/01/10 08:26:24;;;;;;;13.68;10.93;;;;;;;2.00;68.21;101032.25;10406722;28;20399;-59
2021/01/10 08:31:29;;;;;;;12.32;10.85;;;;;;;2.03;68.17;101043.53;10376952;28;20417;-65
2021/01/10 08:36:33;;;;;;;;;;;;;;;2.03;68.35;101040.91;10385426;28;20230;-63
2021/01/10 08:41:43;;;;;;;12.98;11.60;;;;;;;2.01;68.36;101041.84;10383306;28;19925;-59
2021/01/10 08:46:51;;;;;;;12.55;10.75;;;;;;;1.98;68.37;101040.16;10381146;28;20075;-60
2021/01/10 08:51:55;;;;;;;12.75;11.43;;;;;;;1.94;68.86;101041.19;10382485;28;20537;-60
2021/01/10 08:56:58;;;;;;;13.20;11.75;;;;;;;2.01;68.36;101040.09;10374198;28;20132;-60
2021/01/10 09:02:07;;;;;;;13.55;11.30;;;;;;;2.14;67.77;101055.47;10372286;28;20119;-60
2021/01/10 09:07:09;;;;;;;13.02;11.25;;;;;;;2.17;67.96;101055.34;10371702;28;20206;-62
2021/01/10 09:12:33;;;;;;;14.75;11.35;;;;;;;2.12;68.00;101055.50;10395364;28;20052;-61
2021/01/10 09:18:03;;;;;;;14.68;11.75;;;;;;;2.03;68.08;101056.66;10384394;28;20128;-60
2021/01/10 09:23:09;;;;;;;13.60;12.07;;;;;;;2.00;67.33;101069.00;10386776;28;20417;-60
2021/01/10 09:28:12;;;;;;;15.05;12.45;;;;;;;2.00;68.66;101069.88;10390271;28;20053;-60
2021/01/10 09:33:13;;;;;;;15.32;12.05;;;;;;;1.86;69.26;101070.34;10384567;28;20060;-61
2021/01/10 09:38:17;;;;;;;13.25;11.63;;;;;;;1.71;69.77;101074.28;10383035;28;20349;-60
2021/01/10 09:43:43;;;;;;;13.15;11.82;;;;;;;1.96;68.41;101076.13;10391786;28;20107;-60
2021/01/10 09:48:58;;;;;;;11.30;9.98;;;;;;;2.07;67.78;101068.78;10387094;28;20517;-63
2021/01/10 09:54:15;;;;;;;12.15;10.95;;;;;;;2.10;68.05;101060.81;10376109;28;20045;-60
2021/01/10 09:59:35;;;;;;;12.23;10.93;;;;;;;2.30;67.04;101056.66;10378883;28;20152;-60
2021/01/10 10:04:37;;;;;;;12.75;11.32;;;;;;;2.56;66.96;101057.56;10380104;28;20310;-60
2021/01/10 10:09:51;;;;;;;16.13;13.38;;;;;;;2.73;66.12;101055.22;10382835;28;20060;-60
2021/01/10 10:15:08;;;;;;;13.75;12.35;;;;;;;3.03;64.94;101048.91;10380364;28;20056;-60
2021/01/10 10:20:11;;;;;;;12.20;10.73;;;;;;;3.23;64.22;101042.88;10371767;28;20128;-60
2021/01/10 10:25:12;;;;;;;12.40;11.10;;;;;;;3.34;63.12;101038.09;10380319;28;20053;-60
2021/01/10 10:30:14;;;;;;;13.75;11.52;;;;;;;3.44;62.50;101025.44;10392774;28;20054;-60
2021/01/10 10:35:15;;;;;;;12.85;11.35;;;;;;;3.65;62.55;101024.59;10399753;28;20041;-61
2021/01/10 10:40:18;;;;;;;10.05;9.05;;;;;;;4.17;59.99;101015.50;10398356;28;20049;-60
2021/01/10 10:45:20;;;;;;;8.30;7.30;;;;;;;6.16;54.28;101006.50;10391241;28;20521;-65
2021/01/10 10:50:21;;;;;;;9.98;7.63;;;;;;;10.22;43.45;100986.38;10385446;28;20076;-60
2021/01/10 10:55:25;;;;;;;7.32;6.63;;;;;;;13.89;35.04;100992.06;10380720;28;20087;-61
2021/01/10 11:00:27;;;;;;;7.43;6.72;;;;;;;16.20;30.42;100988.03;10370007;28;20061;-61
2021/01/10 11:05:28;;;;;;;7.80;7.10;;;;;;;18.29;27.42;100976.84;10377859;28;20056;-61
2021/01/10 11:10:30;;;;;;;7.95;7.05;;;;;;;19.34;25.57;100975.94;10371370;28;20164;-61
2021/01/10 11:15:31;;;;;;;7.78;7.05;;;;;;;18.64;26.90;100969.66;10368524;28;20102;-58
2021/01/10 11:20:32;;;;;;;7.05;6.35;;;;;;;20.94;25.01;100974.69;10376562;28;20064;-64
2021/01/10 11:25:36;;;;;;;8.07;7.35;;;;;;;22.42;22.45;100965.66;10373822;28;20055;-63
2021/01/10 11:30:37;;;;;;;12.40;11.30;;;;;;;22.51;19.83;100952.88;10371167;28;20518;-62
2021/01/10 11:35:40;;;;;;;7.53;6.93;;;;;;;23.21;20.27;100941.72;10370109;28;20150;-65
2021/01/10 11:40:41;;;;;;;9.85;8.25;;;;;;;23.79;20.35;100942.59;10375203;28;20507;-64
2021/01/10 11:45:42;;;;;;;11.18;10.18;;;;;;;23.61;19.09;100945.75;10366235;28;20350;-67
2021/01/10 11:50:43;;;;;;;21.30;19.40;;;;;;;23.30;19.33;100938.72;10368149;28;20060;-57
2021/01/10 11:55:45;;;;;;;11.45;10.45;;;;;;;23.30;19.25;100927.88;10369769;28;20073;-61
2021/01/10 12:00:50;;;;;;;20.63;18.73;;;;;;;24.40;17.71;100921.38;10372004;28;20501;-60
2021/01/10 12:05:52;;;;;;;25.15;22.70;;;;;;;24.44;17.71;100918.06;10376837;28;20122;-58
2021/01/10 12:10:55;;;;;;;13.48;12.38;;;;;;;25.23;17.98;100918.69;10374402;28;20644;-58
2021/01/10 12:15:56;;;;;;;10.48;9.40;;;;;;;25.47;17.04;100909.16;10372097;28;20546;-59
2021/01/10 12:20:57;;;;;;;8.55;7.85;;;;;;;25.57;16.85;100908.75;10370060;28;20199;-59
2021/01/10 12:25:59;;;;;;;7.57;6.97;;;;;;;26.01;15.97;100885.53;10373336;28;20418;-62
2021/01/10 12:31:00;;;;;;;7.47;6.88;;;;;;;25.48;16.55;100886.31;10372089;28;20683;-61
2021/01/10 12:36:02;;;;;;;;;;;;;;;26.52;15.75;100878.53;10368876;28;21957;-62
2021/01/10 12:41:04;;;;;;;;;;;;;;;25.90;15.79;100875.25;10373154;28;19929;-62
2021/01/10 12:46:05;;;;;;;6.18;5.68;;;;;;;26.16;15.38;100870.84;10369345;28;20316;-62
2021/01/10 12:51:07;;;;;;;6.78;6.28;;;;;;;26.31;15.09;100863.25;10375122;28;21171;-62
2021/01/10 12:56:14;;;;;;;6.80;6.30;;;;;;;26.88;15.09;100862.69;10375210;28;20195;-61
2021/01/10 13:01:15;;;;;;;6.90;6.40;;;;;;;26.51;15.05;100855.00;10375983;28;20467;-63
2021/01/10 13:06:22;;;;;;;;;;;;;;;25.92;15.91;100854.88;10369362;28;20060;-62
2021/01/10 13:11:24;;;;;;;7.63;7.03;;;;;;;25.93;15.54;100855.72;10370438;28;19921;-62
2021/01/10 13:16:27;;;;;;;7.35;6.65;;;;;;;25.98;15.45;100853.19;10372160;28;20150;-62
2021/01/10 13:21:39;;;;;;;6.93;6.43;;;;;;;25.82;15.56;100859.06;10359771;28;20045;-62
2021/01/10 13:26:41;;;;;;;7.57;6.97;;;;;;;25.91;15.40;100855.09;10372905;28;20053;-62
2021/01/10 13:31:43;;;;;;;7.15;6.65;;;;;;;25.68;15.67;100847.34;10368150;28;20505;-62
2021/01/10 13:36:48;;;;;;;7.70;7.00;;;;;;;25.68;16.26;100853.63;10362219;28;20052;-62
2021/01/10 13:41:54;;;;;;;7.00;6.40;;;;;;;24.88;15.82;100862.41;10361047;28;20126;-62
2021/01/10 13:46:57;;;;;;;6.70;6.20;;;;;;;24.72;15.95;100859.22;10360653;28;20553;-62
2021/01/10 13:52:00;;;;;;;6.00;5.60;;;;;;;24.14;16.64;100858.44;10370548;28;20399;-62
2021/01/10 13:57:03;;;;;;;5.85;5.40;;;;;;;18.02;21.55;100868.19;10370125;28;20049;-61
2021/01/10 14:02:05;;;;;;;5.43;5.03;;;;;;;14.08;27.47;100878.94;10369111;28;20469;-62
2021/01/10 14:07:12;;;;;;;6.70;6.20;;;;;;;11.94;31.25;100888.97;10376838;28;20053;-61
2021/01/10 14:12:13;;;;;;;5.95;5.45;;;;;;;10.78;33.21;100892.94;10382508;28;20060;-61
2021/01/10 14:17:16;;;;;;;6.63;6.03;;;;;;;9.97;34.82;100891.41;10377420;28;20045;-60
2021/01/10 14:22:17;;;;;;;8.02;7.22;;;;;;;9.41;37.42;100902.19;10400677;22;20045;-69
2021/01/10 14:27:21;;;;;;;7.55;6.85;;;;;;;8.95;38.89;100906.03;10387724;28;20095;-67
2021/01/10 14:32:22;;;;;;;9.10;8.20;;;;;;;8.56;40.19;100917.34;10330334;28;20541;-67
2021/01/10 14:37:23;;;;;;;9.05;8.15;;;;;;;8.21;41.15;100915.84;10306294;28;20116;-69
2021/01/10 14:42:25;;;;;;;8.35;7.55;;;;;;;7.94;41.83;100915.66;10301932;28;20053;-68
2021/01/10 14:47:26;;;;;;;8.73;7.93;;;;;;;7.56;42.74;100924.06;10301886;28;20137;-69
2021/01/10 14:52:28;;;;;;;8.70;7.95;;;;;;;7.32;43.96;100921.84;10317789;28;20848;-66
2021/01/10 14:57:31;;;;;;;11.23;10.13;;;;;;;7.09;44.86;100917.84;10301687;28;20038;-67
2021/01/10 15:02:34;;;;;;;10.65;9.55;;;;;;;6.76;46.18;100929.34;10306121;28;20054;-66
2021/01/10 15:07:35;;;;;;;10.63;9.57;;;;;;;6.61;47.38;100930.16;10302241;28;20070;-69
2021/01/10 15:12:36;;;;;;;10.45;9.45;;;;;;;6.47;47.46;100928.22;10309807;28;20125;-69
2021/01/10 15:17:38;;;;;;;11.57;10.38;;;;;;;6.27;47.77;100927.47;10300329;28;20046;-70
2021/01/10 15:22:39;;;;;;;10.70;9.60;;;;;;;6.12;48.44;100931.75;10307737;28;20136;-67
2021/01/10 15:27:41;;;;;;;10.30;9.20;;;;;;;5.95;48.82;100924.66;10307662;28;20177;-68
2021/01/10 15:32:42;;;;;;;10.88;9.32;;;;;;;5.93;48.79;100934.47;10308163;28;20057;-67
2021/01/10 15:37:44;;;;;;;11.13;10.02;;;;;;;5.70;49.22;100938.22;10313235;28;20811;-68
2021/01/10 15:42:45;;;;;;;11.73;10.13;;;;;;;5.54;50.19;100927.59;10291140;28;20062;-70
2021/01/10 15:47:46;;;;;;;11.00;9.93;;;;;;;5.40;51.08;100941.44;10308587;28;20157;-70
2021/01/10 15:52:48;;;;;;;13.20;11.30;;;;;;;5.46;52.13;100940.28;10306189;28;20065;-68
2021/01/10 15:57:49;;;;;;;12.93;10.50;;;;;;;5.23;52.12;100942.25;10323771;28;20124;-68
2021/01/10 16:02:51;;;;;;;11.93;10.65;;;;;;;5.13;52.56;100948.88;10312404;28;20139;-69
2021/01/10 16:07:52;;;;;;;13.82;12.15;;;;;;;5.00;52.40;100937.19;10311520;28;20066;-70
2021/01/10 16:12:53;;;;;;;120.85;95.30;;;;;;;4.84;52.91;100935.25;10311955;28;20428;-68
2021/01/10 16:17:55;;;;;;;20.88;17.80;;;;;;;4.72;52.65;100936.66;10315455;28;20184;-69
2021/01/10 16:22:57;;;;;;;12.40;10.55;;;;;;;4.55;53.32;100947.97;10303498;28;20074;-68
2021/01/10 16:27:58;;;;;;;11.82;10.60;;;;;;;4.44;53.49;100937.03;10323264;28;20069;-68
2021/01/10 16:32:59;;;;;;;10.90;9.80;;;;;;;4.42;54.13;100941.53;10324947;28;20057;-68
2021/01/10 16:38:03;;;;;;;17.25;14.40;;;;;;;4.31;53.90;100942.00;10303568;28;20152;-68
2021/01/10 16:43:06;;;;;;;12.75;10.80;;;;;;;4.30;54.30;100934.16;10309762;28;20062;-69
2021/01/10 16:48:11;;;;;;;17.30;13.03;;;;;;;4.16;54.47;100935.59;10341706;28;20041;-69
2021/01/10 16:53:13;;;;;;;12.87;11.57;;;;;;;4.06;54.61;100934.28;10339642;28;20480;-67
2021/01/10 16:58:14;;;;;;;12.57;11.27;;;;;;;3.88;55.24;100925.38;10346156;28;20070;-68
2021/01/10 17:03:15;;;;;;;15.70;13.57;;;;;;;3.98;55.42;100939.88;10344201;28;20123;-68
2021/01/10 17:08:17;;;;;;;14.30;12.57;;;;;;;3.92;55.75;100942.78;10334809;28;20058;-69
2021/01/10 17:13:19;;;;;;;15.35;12.55;;;;;;;3.83;56.26;100940.53;10299273;28;20046;-69
2021/01/10 17:18:20;;;;;;;13.20;11.82;;;;;;;3.79;56.37;100944.19;10292874;28;20132;-68
2021/01/10 17:23:21;;;;;;;13.10;11.45;;;;;;;3.80;56.34;100949.41;10293453;28;20093;-69
2021/01/10 17:28:22;;;;;;;13.93;12.30;;;;;;;3.70;56.83;100945.44;10303216;28;20085;-68
2021/01/10 17:33:29;;;;;;;12.60;11.20;;;;;;;3.63;56.93;100941.31;10320161;28;20805;-67
2021/01/10 17:38:30;;;;;;;12.35;11.05;;;;;;;3.52;57.43;100939.13;10325824;28;20227;-69
2021/01/10 17:43:31;;;;;;;11.88;10.68;;;;;;;3.53;57.39;100949.59;10339043;28;20104;-69
2021/01/10 17:48:33;;;;;;;12.27;10.80;;;;;;;3.46;57.79;100942.00;10338260;28;20145;-68
2021/01/10 17:53:34;;;;;;;13.30;11.98;;;;;;;3.42;57.70;100943.88;10339345;28;20445;-68
2021/01/10 17:58:36;;;;;;;14.98;13.48;;;;;;;3.35;58.76;100942.44;10338290;28;20057;-67
2021/01/10 18:03:37;;;;;;;14.45;13.02;;;;;;;3.34;58.60;100948.63;10337443;28;20050;-67
2021/01/10 18:08:39;;;;;;;14.95;11.98;;;;;;;3.27;58.76;100949.78;10341002;28;20097;-68
2021/01/10 18:13:40;;;;;;;13.27;11.57;;;;;;;3.35;59.46;100952.97;10337334;28;20131;-66
2021/01/10 18:18:42;;;;;;;15.30;13.00;;;;;;;3.42;58.98;100946.53;10337152;28;20070;-66
2021/01/10 18:23:45;;;;;;;14.93;13.43;;;;;;;3.34;59.06;100945.97;10346636;28;20494;-67
2021/01/10 18:28:46;;;;;;;16.13;13.02;;;;;;;3.33;59.42;100960.06;10341443;28;20045;-66
2021/01/10 18:33:47;;;;;;;16.45;14.75;;;;;;;3.17;59.76;100955.38;10329423;28;21735;-68
2021/01/10 18:38:49;;;;;;;17.40;14.13;;;;;;;3.12;60.07;100956.47;10313604;28;20616;-69
2021/01/10 18:43:50;;;;;;;18.08;14.55;;;;;;;2.99;59.87;100956.09;10312967;28;20161;-67
2021/01/10 18:48:52;;;;;;;18.60;16.08;;;;;;;2.89;60.21;100947.69;10325939;28;20046;-69
2021/01/10 18:53:54;;;;;;;18.80;15.10;;;;;;;2.80;61.18;100967.28;10325003;28;20151;-69
2021/01/10 18:58:55;;;;;;;16.85;14.98;;;;;;;2.83;60.89;100961.06;10305706;28;20145;-69
2021/01/10 19:03:56;;;;;;;18.27;15.80;;;;;;;2.72;61.51;100969.34;10314666;28;20054;-69
2021/01/10 19:08:58;;;;;;;17.77;15.60;;;;;;;2.67;61.31;100967.78;10310184;28;20174;-69
2021/01/10 19:14:00;;;;;;;21.25;16.75;;;;;;;2.60;61.51;100960.13;10310789;28;20425;-70
2021/01/10 19:19:01;;;;;;;20.10;17.58;;;;;;;2.62;61.45;100971.44;10295059;28;20196;-68
2021/01/10 19:24:04;;;;;;;18.73;16.77;;;;;;;2.53;61.75;100971.78;10311434;28;20124;-69
2021/01/10 19:29:06;;;;;;;18.40;14.98;;;;;;;2.49;62.50;100972.78;10331286;28;20053;-69
2021/01/10 19:34:08;;;;;;;16.98;15.18;;;;;;;2.50;62.00;100964.00;10329396;28;20104;-69
2021/01/10 19:39:09;;;;;;;15.02;13.43;;;;;;;2.64;60.81;100971.38;10333693;28;20060;-70
2021/01/10 19:44:10;;;;;;;15.38;12.02;;;;;;;2.50;60.49;100963.16;10321129;28;20061;-68
2021/01/10 19:49:11;;;;;;;15.52;13.95;;;;;;;2.41;60.82;100964.34;10316972;28;20100;-69
2021/01/10 19:54:14;;;;;;;15.32;13.73;;;;;;;2.29;61.46;100950.69;10323654;28;20120;-68
2021/01/10 19:59:15;;;;;;;13.93;12.43;;;;;;;2.21;61.92;100962.41;10310787;28;20497;-68
2021/01/10 20:04:16;;;;;;;15.43;12.32;;;;;;;2.33;61.19;100950.59;10312768;28;20050;-67
2021/01/10 20:09:17;;;;;;;14.07;12.48;;;;;;;2.27;61.40;100956.94;10308136;28;20140;-69
2021/01/10 20:14:18;;;;;;;15.90;12.43;;;;;;;2.19;61.27;100958.94;10307055;28;20054;-68
2021/01/10 20:19:45;;;;;;;15.35;12.32;;;;;;;2.12;61.50;100964.41;10287957;28;20061;-68
2021/01/10 20:24:42;;;;;;;15.52;12.75;;;;;;;2.06;61.50;100958.53;10413378;22;20316;-71
2021/01/10 20:29:44;;;;;;;14.18;12.68;;;;;;;2.08;61.52;100962.81;10418048;28;20073;-69
2021/01/10 20:34:46;;;;;;;14.73;13.10;;;;;;;1.92;61.66;100964.22;10417329;28;20056;-68
2021/01/10 20:39:47;;;;;;;17.27;15.32;;;;;;;1.64;62.38;100952.00;10418949;28;21231;-67
2021/01/10 20:44:51;;;;;;;17.15;14.10;;;;;;;1.61;62.95;100970.50;10420452;28;20053;-67
2021/01/10 20:49:53;;;;;;;23.40;19.38;;;;;;;1.52;64.48;100973.41;10416958;28;20111;-67
2021/01/10 20:54:55;;;;;;;24.17;20.88;;;;;;;1.45;64.81;100977.13;10421521;28;20083;-69
2021/01/10 20:59:56;;;;;;;23.85;19.98;;;;;;;1.35;64.89;100952.91;10416187;28;20562;-68
2021/01/10 21:05:18;;;;;;;24.30;20.38;;;;;;;1.43;65.15;100969.28;10419467;28;20613;-67
2021/01/10 21:10:20;;;;;;;24.75;21.52;;;;;;;1.44;65.06;100964.91;10420165;28;20056;-68
2021/01/10 21:15:22;;;;;;;23.90;19.45;;;;;;;1.32;65.57;100959.16;10416150;28;20041;-70
2021/01/10 21:20:24;;;;;;;23.48;18.95;;;;;;;1.40;65.58;100975.50;10414074;28;20061;-70
2021/01/10 21:25:25;;;;;;;21.67;18.73;;;;;;;1.28;66.29;100969.78;10408111;28;20060;-68
2021/01/10 21:30:27;;;;;;;21.98;18.27;;;;;;;1.19;66.55;100978.78;10412978;28;20053;-69
2021/01/10 21:35:28;;;;;;;19.08;16.92;;;;;;;1.16;67.16;100971.00;10409872;28;20059;-65
2021/01/10 21:40:30;;;;;;;18.27;16.35;;;;;;;1.13;66.70;100961.47;10414068;28;20049;-66
2021/01/10 21:45:31;;;;;;;18.77;15.55;;;;;;;1.03;67.50;100975.75;10412284;28;21155;-65
2021/01/10 21:50:33;;;;;;;18.42;15.27;;;;;;;0.84;68.29;100951.81;10415571;28;20048;-65
2021/01/10 21:55:35;;;;;;;17.52;14.15;;;;;;;0.86;68.33;100984.09;10416216;28;20269;-66
2021/01/10 22:00:37;;;;;;;17.70;15.60;;;;;;;0.79;68.02;100943.22;10415955;28;20056;-66
2021/01/10 22:05:39;;;;;;;19.05;14.65;;;;;;;0.76;68.37;100940.69;10413988;28;20077;-67
2021/01/10 22:10:40;;;;;;;18.45;14.95;;;;;;;0.82;68.06;100956.25;10411844;28;20057;-66
2021/01/10 22:15:42;;;;;;;17.20;14.98;;;;;;;0.82;68.29;100967.59;10423424;28;20439;-66
2021/01/10 22:20:44;;;;;;;16.38;14.02;;;;;;;0.77;68.40;100948.53;10408014;28;20053;-68
2021/01/10 22:25:46;;;;;;;16.60;13.40;;;;;;;0.56;68.86;100934.28;10408230;28;20805;-67
2021/01/10 22:30:47;;;;;;;18.35;15.27;;;;;;;0.68;68.67;100960.13;10415773;28;20051;-67
2021/01/10 22:35:49;;;;;;;19.38;16.42;;;;;;;0.66;68.24;100967.19;10420152;28;20583;-67
2021/01/10 22:40:50;;;;;;;19.30;15.02;;;;;;;0.72;68.69;100970.50;10407584;28;20088;-67
2021/01/10 22:45:52;;;;;;;17.00;14.95;;;;;;;0.61;68.50;100966.44;10423433;28;20111;-70
2021/01/10 22:50:53;;;;;;;18.30;15.40;;;;;;;0.54;68.61;100951.78;10419319;28;20139;-67
2021/01/10 22:55:54;;;;;;;17.40;15.20;;;;;;;0.59;68.54;100963.00;10422080;28;20064;-68
2021/01/10 23:00:56;;;;;;;19.75;15.98;;;;;;;0.52;69.02;100954.44;10420691;28;20048;-67
2021/01/10 23:05:57;;;;;;;18.80;15.73;;;;;;;0.45;69.21;100957.28;10421938;28;20098;-66
2021/01/10 23:10:59;;;;;;;19.83;15.63;;;;;;;0.47;69.10;100942.38;10434111;28;20693;-67